sensor_id;sensor_type;location;lat;lon;timestamp;P1;durP1;ratioP1;P2;durP2;ratioP2
68866;SDS011;56451;44.804;20.476;2023-08-17T00:00:12;12.77;;;9.97;;
68866;SDS011;56451;44.804;20.476;2023-08-17T00:02:40;12.82;;;10.05;;
68866;SDS011;56451;44.804;20.476;2023-08-17T00:05:06;12.23;;;10.63;;
68866;SDS011;56451;44.804;20.476;2023-08-17T00:07:33;13.63;;;10.25;;
68866;SDS011;56451;44.804;20.476;2023-08-17T00:09:59;14.32;;;10.75;;
68866;SDS011;56451;44.804;20.476;2023-08-17T00:12:25;13.40;;;10.87;;
68866;SDS011;56451;44.804;20.476;2023-08-17T00:14:51;11.80;;;10.35;;
68866;SDS011;56451;44.804;20.476;2023-08-17T00:17:18;12.27;;;10.32;;
68866;SDS011;56451;44.804;20.476;2023-08-17T00:19:44;16.58;;;10.80;;
68866;SDS011;56451;44.804;20.476;2023-08-17T00:22:10;14.52;;;10.60;;
68866;SDS011;56451;44.804;20.476;2023-08-17T00:24:36;14.23;;;11.20;;
68866;SDS011;56451;44.804;20.476;2023-08-17T00:27:02;19.77;;;11.13;;
68866;SDS011;56451;44.804;20.476;2023-08-17T00:29:29;12.90;;;10.98;;
68866;SDS011;56451;44.804;20.476;2023-08-17T00:31:56;14.77;;;11.48;;
68866;SDS011;56451;44.804;20.476;2023-08-17T00:34:21;14.17;;;11.63;;
68866;SDS011;56451;44.804;20.476;2023-08-17T00:36:48;14.63;;;11.85;;
68866;SDS011;56451;44.804;20.476;2023-08-17T00:39:13;14.68;;;11.57;;
68866;SDS011;56451;44.804;20.476;2023-08-17T00:41:41;16.13;;;11.98;;
68866;SDS011;56451;44.804;20.476;2023-08-17T00:44:07;14.82;;;12.70;;
68866;SDS011;56451;44.804;20.476;2023-08-17T00:46:33;14.63;;;11.77;;
68866;SDS011;56451;44.804;20.476;2023-08-17T00:48:59;19.05;;;12.75;;
68866;SDS011;56451;44.804;20.476;2023-08-17T00:51:26;16.63;;;12.23;;
68866;SDS011;56451;44.804;20.476;2023-08-17T00:53:53;14.52;;;10.95;;
68866;SDS011;56451;44.804;20.476;2023-08-17T00:56:23;14.13;;;11.73;;
68866;SDS011;56451;44.804;20.476;2023-08-17T00:58:49;17.20;;;11.40;;
68866;SDS011;56451;44.804;20.476;2023-08-17T01:01:16;16.38;;;12.27;;
68866;SDS011;56451;44.804;20.476;2023-08-17T01:03:42;15.15;;;12.52;;
68866;SDS011;56451;44.804;20.476;2023-08-17T01:06:08;14.67;;;11.47;;
68866;SDS011;56451;44.804;20.476;2023-08-17T01:08:35;15.90;;;12.45;;
68866;SDS011;56451;44.804;20.476;2023-08-17T01:11:06;14.75;;;12.23;;
68866;SDS011;56451;44.804;20.476;2023-08-17T01:13:47;14.63;;;11.75;;
68866;SDS011;56451;44.804;20.476;2023-08-17T01:17:06;14.07;;;12.05;;
68866;SDS011;56451;44.804;20.476;2023-08-17T01:19:21;16.33;;;12.73;;
68866;SDS011;56451;44.804;20.476;2023-08-17T01:21:51;15.95;;;12.55;;
68866;SDS011;56451;44.804;20.476;2023-08-17T01:24:22;13.15;;;11.57;;
68866;SDS011;56451;44.804;20.476;2023-08-17T01:26:48;12.98;;;11.48;;
68866;SDS011;56451;44.804;20.476;2023-08-17T01:29:14;13.77;;;11.37;;
68866;SDS011;56451;44.804;20.476;2023-08-17T01:32:04;15.10;;;11.70;;
68866;SDS011;56451;44.804;20.476;2023-08-17T01:34:44;18.77;;;12.55;;
68866;SDS011;56451;44.804;20.476;2023-08-17T01:37:15;13.40;;;11.68;;
68866;SDS011;56451;44.804;20.476;2023-08-17T01:39:47;15.52;;;11.43;;
68866;SDS011;56451;44.804;20.476;2023-08-17T01:42:17;15.77;;;12.03;;
68866;SDS011;56451;44.804;20.476;2023-08-17T01:44:44;16.80;;;12.30;;
68866;SDS011;56451;44.804;20.476;2023-08-17T01:47:10;14.88;;;12.43;;
68866;SDS011;56451;44.804;20.476;2023-08-17T01:49:36;16.88;;;12.38;;
68866;SDS011;56451;44.804;20.476;2023-08-17T01:52:02;17.23;;;13.40;;
68866;SDS011;56451;44.804;20.476;2023-08-17T01:54:28;18.60;;;13.90;;
68866;SDS011;56451;44.804;20.476;2023-08-17T01:56:55;26.30;;;18.48;;
68866;SDS011;56451;44.804;20.476;2023-08-17T01:59:21;30.13;;;23.58;;
68866;SDS011;56451;44.804;20.476;2023-08-17T02:01:47;31.63;;;23.83;;
68866;SDS011;56451;44.804;20.476;2023-08-17T02:04:14;40.40;;;27.13;;
68866;SDS011;56451;44.804;20.476;2023-08-17T02:06:40;46.33;;;31.25;;
68866;SDS011;56451;44.804;20.476;2023-08-17T02:09:06;30.58;;;23.52;;
68866;SDS011;56451;44.804;20.476;2023-08-17T02:11:32;26.20;;;20.37;;
68866;SDS011;56451;44.804;20.476;2023-08-17T02:13:57;27.02;;;21.13;;
68866;SDS011;56451;44.804;20.476;2023-08-17T02:16:23;25.67;;;20.05;;
68866;SDS011;56451;44.804;20.476;2023-08-17T02:18:49;25.23;;;20.13;;
68866;SDS011;56451;44.804;20.476;2023-08-17T02:21:16;23.08;;;18.83;;
68866;SDS011;56451;44.804;20.476;2023-08-17T02:23:42;19.75;;;16.67;;
68866;SDS011;56451;44.804;20.476;2023-08-17T02:26:08;19.77;;;14.80;;
68866;SDS011;56451;44.804;20.476;2023-08-17T02:28:34;17.73;;;14.67;;
68866;SDS011;56451;44.804;20.476;2023-08-17T02:33:56;22.33;;;15.55;;
68866;SDS011;56451;44.804;20.476;2023-08-17T02:36:26;21.23;;;14.57;;
68866;SDS011;56451;44.804;20.476;2023-08-17T02:38:52;17.53;;;14.57;;
68866;SDS011;56451;44.804;20.476;2023-08-17T02:41:18;19.55;;;14.27;;
68866;SDS011;56451;44.804;20.476;2023-08-17T02:43:44;19.52;;;13.98;;
68866;SDS011;56451;44.804;20.476;2023-08-17T02:46:11;18.27;;;14.70;;
68866;SDS011;56451;44.804;20.476;2023-08-17T02:48:37;18.02;;;13.55;;
68866;SDS011;56451;44.804;20.476;2023-08-17T02:51:03;20.52;;;15.10;;
68866;SDS011;56451;44.804;20.476;2023-08-17T02:53:29;20.03;;;16.17;;
68866;SDS011;56451;44.804;20.476;2023-08-17T02:55:55;21.90;;;15.38;;
68866;SDS011;56451;44.804;20.476;2023-08-17T02:58:22;20.05;;;14.98;;
68866;SDS011;56451;44.804;20.476;2023-08-17T03:00:47;24.05;;;16.60;;
68866;SDS011;56451;44.804;20.476;2023-08-17T03:03:16;22.73;;;17.13;;
68866;SDS011;56451;44.804;20.476;2023-08-17T03:05:42;26.17;;;17.65;;
68866;SDS011;56451;44.804;20.476;2023-08-17T03:08:08;28.65;;;19.80;;
68866;SDS011;56451;44.804;20.476;2023-08-17T03:10:34;29.83;;;21.00;;
68866;SDS011;56451;44.804;20.476;2023-08-17T03:13:00;29.40;;;20.70;;
68866;SDS011;56451;44.804;20.476;2023-08-17T03:15:26;30.02;;;20.35;;
68866;SDS011;56451;44.804;20.476;2023-08-17T03:17:52;35.47;;;20.63;;
68866;SDS011;56451;44.804;20.476;2023-08-17T03:20:18;34.13;;;20.85;;
68866;SDS011;56451;44.804;20.476;2023-08-17T03:22:44;28.98;;;20.08;;
68866;SDS011;56451;44.804;20.476;2023-08-17T03:25:10;32.22;;;20.60;;
68866;SDS011;56451;44.804;20.476;2023-08-17T03:27:36;34.73;;;21.13;;
68866;SDS011;56451;44.804;20.476;2023-08-17T03:30:03;33.60;;;21.88;;
68866;SDS011;56451;44.804;20.476;2023-08-17T03:32:30;29.67;;;19.63;;
68866;SDS011;56451;44.804;20.476;2023-08-17T03:34:57;34.83;;;20.55;;
68866;SDS011;56451;44.804;20.476;2023-08-17T03:37:23;29.80;;;19.75;;
68866;SDS011;56451;44.804;20.476;2023-08-17T03:39:49;32.30;;;19.13;;
68866;SDS011;56451;44.804;20.476;2023-08-17T03:42:15;30.67;;;18.90;;
68866;SDS011;56451;44.804;20.476;2023-08-17T03:44:40;24.67;;;17.20;;
68866;SDS011;56451;44.804;20.476;2023-08-17T03:47:06;24.37;;;16.90;;
68866;SDS011;56451;44.804;20.476;2023-08-17T03:49:32;21.27;;;15.93;;
68866;SDS011;56451;44.804;20.476;2023-08-17T03:51:58;23.48;;;16.35;;
68866;SDS011;56451;44.804;20.476;2023-08-17T03:54:24;21.00;;;15.43;;
68866;SDS011;56451;44.804;20.476;2023-08-17T03:56:50;21.70;;;15.98;;
68866;SDS011;56451;44.804;20.476;2023-08-17T03:59:16;19.67;;;15.60;;
68866;SDS011;56451;44.804;20.476;2023-08-17T04:01:41;20.63;;;14.63;;
68866;SDS011;56451;44.804;20.476;2023-08-17T04:04:09;21.20;;;15.52;;
68866;SDS011;56451;44.804;20.476;2023-08-17T04:06:35;21.58;;;15.30;;
68866;SDS011;56451;44.804;20.476;2023-08-17T04:09:01;20.85;;;15.15;;
68866;SDS011;56451;44.804;20.476;2023-08-17T04:11:28;23.90;;;16.07;;
68866;SDS011;56451;44.804;20.476;2023-08-17T04:13:54;20.40;;;14.75;;
68866;SDS011;56451;44.804;20.476;2023-08-17T04:16:20;17.63;;;13.77;;
68866;SDS011;56451;44.804;20.476;2023-08-17T04:18:46;24.02;;;15.35;;
68866;SDS011;56451;44.804;20.476;2023-08-17T04:21:12;19.40;;;14.47;;
68866;SDS011;56451;44.804;20.476;2023-08-17T04:23:38;19.02;;;14.15;;
68866;SDS011;56451;44.804;20.476;2023-08-17T04:26:04;21.58;;;15.07;;
68866;SDS011;56451;44.804;20.476;2023-08-17T04:28:30;23.98;;;14.90;;
68866;SDS011;56451;44.804;20.476;2023-08-17T04:30:56;22.13;;;15.20;;
68866;SDS011;56451;44.804;20.476;2023-08-17T04:33:22;23.73;;;14.68;;
68866;SDS011;56451;44.804;20.476;2023-08-17T04:35:48;27.45;;;16.35;;
68866;SDS011;56451;44.804;20.476;2023-08-17T04:38:15;25.75;;;15.98;;
68866;SDS011;56451;44.804;20.476;2023-08-17T04:40:42;27.67;;;16.50;;
68866;SDS011;56451;44.804;20.476;2023-08-17T04:43:09;23.67;;;16.75;;
68866;SDS011;56451;44.804;20.476;2023-08-17T04:45:36;24.83;;;17.25;;
68866;SDS011;56451;44.804;20.476;2023-08-17T04:48:02;26.38;;;16.15;;
68866;SDS011;56451;44.804;20.476;2023-08-17T04:50:29;26.50;;;17.23;;
68866;SDS011;56451;44.804;20.476;2023-08-17T04:52:55;23.57;;;16.33;;
68866;SDS011;56451;44.804;20.476;2023-08-17T04:55:21;25.40;;;16.58;;
68866;SDS011;56451;44.804;20.476;2023-08-17T04:57:48;28.10;;;17.52;;
68866;SDS011;56451;44.804;20.476;2023-08-17T05:00:14;23.48;;;15.85;;
68866;SDS011;56451;44.804;20.476;2023-08-17T05:02:42;23.73;;;16.20;;
68866;SDS011;56451;44.804;20.476;2023-08-17T05:05:09;25.30;;;16.10;;
68866;SDS011;56451;44.804;20.476;2023-08-17T05:07:35;29.80;;;17.95;;
68866;SDS011;56451;44.804;20.476;2023-08-17T05:10:01;25.88;;;17.20;;
68866;SDS011;56451;44.804;20.476;2023-08-17T05:12:31;31.25;;;16.88;;
68866;SDS011;56451;44.804;20.476;2023-08-17T05:14:56;25.53;;;17.37;;
68866;SDS011;56451;44.804;20.476;2023-08-17T05:17:23;26.85;;;18.15;;
68866;SDS011;56451;44.804;20.476;2023-08-17T05:19:49;26.33;;;18.05;;
68866;SDS011;56451;44.804;20.476;2023-08-17T05:22:15;27.15;;;17.73;;
68866;SDS011;56451;44.804;20.476;2023-08-17T05:24:41;29.13;;;18.53;;
68866;SDS011;56451;44.804;20.476;2023-08-17T05:27:07;25.00;;;17.80;;
68866;SDS011;56451;44.804;20.476;2023-08-17T05:29:35;25.63;;;17.02;;
68866;SDS011;56451;44.804;20.476;2023-08-17T05:32:00;28.33;;;17.73;;
68866;SDS011;56451;44.804;20.476;2023-08-17T05:34:27;25.50;;;16.83;;
68866;SDS011;56451;44.804;20.476;2023-08-17T05:36:53;28.67;;;17.20;;
68866;SDS011;56451;44.804;20.476;2023-08-17T05:39:20;23.73;;;16.90;;
68866;SDS011;56451;44.804;20.476;2023-08-17T05:41:46;23.70;;;17.63;;
68866;SDS011;56451;44.804;20.476;2023-08-17T05:44:12;24.53;;;17.63;;
68866;SDS011;56451;44.804;20.476;2023-08-17T05:46:39;24.40;;;16.42;;
68866;SDS011;56451;44.804;20.476;2023-08-17T05:49:07;22.67;;;17.10;;
68866;SDS011;56451;44.804;20.476;2023-08-17T05:51:33;25.05;;;17.83;;
68866;SDS011;56451;44.804;20.476;2023-08-17T05:53:58;28.97;;;17.70;;
68866;SDS011;56451;44.804;20.476;2023-08-17T05:56:24;26.52;;;18.08;;
68866;SDS011;56451;44.804;20.476;2023-08-17T05:58:50;31.58;;;18.10;;
68866;SDS011;56451;44.804;20.476;2023-08-17T06:01:16;26.65;;;16.95;;
68866;SDS011;56451;44.804;20.476;2023-08-17T06:03:42;21.70;;;16.60;;
68866;SDS011;56451;44.804;20.476;2023-08-17T06:06:08;19.65;;;15.75;;
68866;SDS011;56451;44.804;20.476;2023-08-17T06:08:35;23.05;;;16.90;;
68866;SDS011;56451;44.804;20.476;2023-08-17T06:11:01;22.10;;;15.87;;
68866;SDS011;56451;44.804;20.476;2023-08-17T06:13:27;19.73;;;15.57;;
68866;SDS011;56451;44.804;20.476;2023-08-17T06:15:53;24.40;;;16.27;;
68866;SDS011;56451;44.804;20.476;2023-08-17T06:18:21;25.10;;;16.08;;
68866;SDS011;56451;44.804;20.476;2023-08-17T06:20:47;23.63;;;16.17;;
68866;SDS011;56451;44.804;20.476;2023-08-17T06:23:16;23.30;;;16.50;;
68866;SDS011;56451;44.804;20.476;2023-08-17T06:25:42;26.13;;;18.25;;
68866;SDS011;56451;44.804;20.476;2023-08-17T06:28:08;29.33;;;17.75;;
68866;SDS011;56451;44.804;20.476;2023-08-17T06:30:33;26.93;;;18.67;;
68866;SDS011;56451;44.804;20.476;2023-08-17T06:32:59;36.25;;;18.95;;
68866;SDS011;56451;44.804;20.476;2023-08-17T06:35:25;26.45;;;18.02;;
68866;SDS011;56451;44.804;20.476;2023-08-17T06:37:51;28.00;;;18.57;;
68866;SDS011;56451;44.804;20.476;2023-08-17T06:40:19;27.98;;;18.02;;
68866;SDS011;56451;44.804;20.476;2023-08-17T06:42:45;25.45;;;19.55;;
68866;SDS011;56451;44.804;20.476;2023-08-17T06:45:11;27.17;;;18.83;;
68866;SDS011;56451;44.804;20.476;2023-08-17T06:47:37;26.23;;;18.83;;
68866;SDS011;56451;44.804;20.476;2023-08-17T06:50:03;27.58;;;18.42;;
68866;SDS011;56451;44.804;20.476;2023-08-17T06:52:29;27.00;;;19.25;;
68866;SDS011;56451;44.804;20.476;2023-08-17T06:54:55;25.93;;;18.63;;
68866;SDS011;56451;44.804;20.476;2023-08-17T06:57:20;28.75;;;19.27;;
68866;SDS011;56451;44.804;20.476;2023-08-17T06:59:47;29.65;;;18.65;;
68866;SDS011;56451;44.804;20.476;2023-08-17T07:02:13;24.30;;;20.15;;
68866;SDS011;56451;44.804;20.476;2023-08-17T07:04:39;32.50;;;21.53;;
68866;SDS011;56451;44.804;20.476;2023-08-17T07:07:05;28.17;;;19.90;;
68866;SDS011;56451;44.804;20.476;2023-08-17T07:09:30;35.33;;;21.55;;
68866;SDS011;56451;44.804;20.476;2023-08-17T07:11:56;27.40;;;19.93;;
68866;SDS011;56451;44.804;20.476;2023-08-17T07:14:22;32.88;;;23.58;;
68866;SDS011;56451;44.804;20.476;2023-08-17T07:16:48;30.98;;;22.85;;
68866;SDS011;56451;44.804;20.476;2023-08-17T07:19:14;35.07;;;23.77;;
68866;SDS011;56451;44.804;20.476;2023-08-17T07:21:40;35.38;;;23.15;;
68866;SDS011;56451;44.804;20.476;2023-08-17T07:24:12;33.22;;;23.52;;
68866;SDS011;56451;44.804;20.476;2023-08-17T07:26:39;41.57;;;23.60;;
68866;SDS011;56451;44.804;20.476;2023-08-17T07:29:05;32.83;;;22.80;;
68866;SDS011;56451;44.804;20.476;2023-08-17T07:31:31;35.05;;;23.85;;
68866;SDS011;56451;44.804;20.476;2023-08-17T07:33:59;35.65;;;22.92;;
68866;SDS011;56451;44.804;20.476;2023-08-17T07:36:26;32.63;;;22.63;;
68866;SDS011;56451;44.804;20.476;2023-08-17T07:38:51;31.87;;;22.03;;
68866;SDS011;56451;44.804;20.476;2023-08-17T07:41:18;29.02;;;21.80;;
68866;SDS011;56451;44.804;20.476;2023-08-17T07:43:44;32.88;;;22.52;;
68866;SDS011;56451;44.804;20.476;2023-08-17T07:46:09;32.60;;;22.27;;
68866;SDS011;56451;44.804;20.476;2023-08-17T07:48:35;34.08;;;24.25;;
68866;SDS011;56451;44.804;20.476;2023-08-17T07:51:01;31.45;;;22.67;;
68866;SDS011;56451;44.804;20.476;2023-08-17T07:53:27;33.23;;;23.30;;
68866;SDS011;56451;44.804;20.476;2023-08-17T07:55:53;33.55;;;23.98;;
68866;SDS011;56451;44.804;20.476;2023-08-17T07:58:19;31.30;;;22.77;;
68866;SDS011;56451;44.804;20.476;2023-08-17T08:00:45;33.25;;;23.80;;
68866;SDS011;56451;44.804;20.476;2023-08-17T08:03:11;30.13;;;23.50;;
68866;SDS011;56451;44.804;20.476;2023-08-17T08:05:37;31.85;;;23.35;;
68866;SDS011;56451;44.804;20.476;2023-08-17T08:08:03;30.52;;;23.08;;
68866;SDS011;56451;44.804;20.476;2023-08-17T08:10:29;33.17;;;21.70;;
68866;SDS011;56451;44.804;20.476;2023-08-17T08:12:55;33.60;;;22.73;;
68866;SDS011;56451;44.804;20.476;2023-08-17T08:15:21;28.50;;;22.67;;
68866;SDS011;56451;44.804;20.476;2023-08-17T08:17:47;34.22;;;23.02;;
68866;SDS011;56451;44.804;20.476;2023-08-17T08:20:13;32.50;;;23.03;;
68866;SDS011;56451;44.804;20.476;2023-08-17T08:22:39;33.72;;;23.60;;
68866;SDS011;56451;44.804;20.476;2023-08-17T08:25:04;32.35;;;22.10;;
68866;SDS011;56451;44.804;20.476;2023-08-17T08:27:30;32.72;;;23.13;;
68866;SDS011;56451;44.804;20.476;2023-08-17T08:29:56;27.03;;;20.87;;
68866;SDS011;56451;44.804;20.476;2023-08-17T08:32:23;27.92;;;21.95;;
68866;SDS011;56451;44.804;20.476;2023-08-17T08:34:49;27.90;;;21.65;;
68866;SDS011;56451;44.804;20.476;2023-08-17T08:37:15;27.05;;;20.65;;
68866;SDS011;56451;44.804;20.476;2023-08-17T08:39:50;25.52;;;21.15;;
68866;SDS011;56451;44.804;20.476;2023-08-17T08:42:18;25.87;;;20.83;;
68866;SDS011;56451;44.804;20.476;2023-08-17T08:44:48;30.38;;;20.67;;
68866;SDS011;56451;44.804;20.476;2023-08-17T08:47:16;29.35;;;21.73;;
68866;SDS011;56451;44.804;20.476;2023-08-17T08:49:50;27.02;;;20.58;;
68866;SDS011;56451;44.804;20.476;2023-08-17T08:52:23;25.45;;;19.25;;
68866;SDS011;56451;44.804;20.476;2023-08-17T08:55:18;21.93;;;17.73;;
68866;SDS011;56451;44.804;20.476;2023-08-17T08:57:46;21.45;;;18.20;;
68866;SDS011;56451;44.804;20.476;2023-08-17T09:00:14;23.85;;;19.27;;
68866;SDS011;56451;44.804;20.476;2023-08-17T09:02:42;21.50;;;17.92;;
68866;SDS011;56451;44.804;20.476;2023-08-17T09:05:08;25.48;;;19.13;;
68866;SDS011;56451;44.804;20.476;2023-08-17T09:07:36;23.67;;;18.13;;
68866;SDS011;56451;44.804;20.476;2023-08-17T09:10:03;25.10;;;18.17;;
68866;SDS011;56451;44.804;20.476;2023-08-17T09:12:30;22.55;;;19.05;;
68866;SDS011;56451;44.804;20.476;2023-08-17T09:14:56;22.77;;;18.23;;
68866;SDS011;56451;44.804;20.476;2023-08-17T09:17:26;20.83;;;17.30;;
68866;SDS011;56451;44.804;20.476;2023-08-17T09:19:52;23.27;;;19.53;;
68866;SDS011;56451;44.804;20.476;2023-08-17T09:22:26;22.67;;;18.83;;
68866;SDS011;56451;44.804;20.476;2023-08-17T09:25:02;21.08;;;18.67;;
68866;SDS011;56451;44.804;20.476;2023-08-17T09:27:28;26.30;;;20.10;;
68866;SDS011;56451;44.804;20.476;2023-08-17T09:30:00;23.08;;;18.75;;
68866;SDS011;56451;44.804;20.476;2023-08-17T09:32:34;27.57;;;20.00;;
68866;SDS011;56451;44.804;20.476;2023-08-17T09:35:04;25.55;;;18.13;;
68866;SDS011;56451;44.804;20.476;2023-08-17T09:37:31;28.08;;;17.92;;
68866;SDS011;56451;44.804;20.476;2023-08-17T09:39:57;24.88;;;20.00;;
68866;SDS011;56451;44.804;20.476;2023-08-17T09:42:24;22.67;;;17.65;;
68866;SDS011;56451;44.804;20.476;2023-08-17T09:44:51;25.03;;;19.47;;
68866;SDS011;56451;44.804;20.476;2023-08-17T09:47:18;24.45;;;18.60;;
68866;SDS011;56451;44.804;20.476;2023-08-17T09:49:50;24.45;;;19.63;;
68866;SDS011;56451;44.804;20.476;2023-08-17T09:52:21;24.02;;;19.88;;
68866;SDS011;56451;44.804;20.476;2023-08-17T09:54:48;20.77;;;18.52;;
68866;SDS011;56451;44.804;20.476;2023-08-17T09:57:15;23.23;;;18.53;;
68866;SDS011;56451;44.804;20.476;2023-08-17T09:59:42;21.50;;;19.20;;
68866;SDS011;56451;44.804;20.476;2023-08-17T10:02:18;22.25;;;19.25;;
68866;SDS011;56451;44.804;20.476;2023-08-17T10:04:49;24.13;;;19.63;;
68866;SDS011;56451;44.804;20.476;2023-08-17T10:07:21;26.10;;;21.13;;
68866;SDS011;56451;44.804;20.476;2023-08-17T10:10:07;25.50;;;19.60;;
68866;SDS011;56451;44.804;20.476;2023-08-17T10:12:36;22.13;;;16.40;;
68866;SDS011;56451;44.804;20.476;2023-08-17T10:15:10;22.45;;;18.27;;
68866;SDS011;56451;44.804;20.476;2023-08-17T10:17:43;22.08;;;18.20;;
68866;SDS011;56451;44.804;20.476;2023-08-17T10:20:14;27.58;;;20.90;;
68866;SDS011;56451;44.804;20.476;2023-08-17T10:22:45;26.07;;;19.90;;
68866;SDS011;56451;44.804;20.476;2023-08-17T10:25:24;24.60;;;19.60;;
68866;SDS011;56451;44.804;20.476;2023-08-17T10:27:52;23.20;;;20.45;;
68866;SDS011;56451;44.804;20.476;2023-08-17T10:30:20;23.20;;;19.90;;
68866;SDS011;56451;44.804;20.476;2023-08-17T10:32:46;24.42;;;20.13;;
68866;SDS011;56451;44.804;20.476;2023-08-17T10:35:12;25.50;;;21.37;;
68866;SDS011;56451;44.804;20.476;2023-08-17T10:37:39;24.20;;;20.77;;
68866;SDS011;56451;44.804;20.476;2023-08-17T10:40:06;25.48;;;21.08;;
68866;SDS011;56451;44.804;20.476;2023-08-17T10:42:33;25.55;;;21.40;;
68866;SDS011;56451;44.804;20.476;2023-08-17T10:45:03;24.80;;;20.70;;
68866;SDS011;56451;44.804;20.476;2023-08-17T10:47:47;23.30;;;18.33;;
68866;SDS011;56451;44.804;20.476;2023-08-17T10:50:21;24.55;;;21.75;;
68866;SDS011;56451;44.804;20.476;2023-08-17T10:52:48;22.15;;;19.77;;
68866;SDS011;56451;44.804;20.476;2023-08-17T10:55:16;22.73;;;20.42;;
68866;SDS011;56451;44.804;20.476;2023-08-17T10:57:44;25.48;;;17.27;;
68866;SDS011;56451;44.804;20.476;2023-08-17T11:00:14;22.30;;;19.87;;
68866;SDS011;56451;44.804;20.476;2023-08-17T11:02:58;22.83;;;20.38;;
68866;SDS011;56451;44.804;20.476;2023-08-17T11:05:42;23.00;;;20.55;;
68866;SDS011;56451;44.804;20.476;2023-08-17T11:08:23;23.02;;;19.42;;
68866;SDS011;56451;44.804;20.476;2023-08-17T11:13:30;26.20;;;19.70;;
68866;SDS011;56451;44.804;20.476;2023-08-17T11:16:01;24.10;;;21.08;;
68866;SDS011;56451;44.804;20.476;2023-08-17T11:18:28;24.55;;;20.20;;
68866;SDS011;56451;44.804;20.476;2023-08-17T11:20:55;25.92;;;21.80;;
68866;SDS011;56451;44.804;20.476;2023-08-17T11:23:24;20.20;;;17.98;;
68866;SDS011;56451;44.804;20.476;2023-08-17T11:25:54;23.70;;;19.50;;
68866;SDS011;56451;44.804;20.476;2023-08-17T11:28:21;21.65;;;19.38;;
68866;SDS011;56451;44.804;20.476;2023-08-17T11:30:57;24.80;;;20.05;;
68866;SDS011;56451;44.804;20.476;2023-08-17T11:33:28;22.45;;;19.35;;
68866;SDS011;56451;44.804;20.476;2023-08-17T11:35:55;23.77;;;19.80;;
68866;SDS011;56451;44.804;20.476;2023-08-17T11:38:25;22.73;;;20.33;;
68866;SDS011;56451;44.804;20.476;2023-08-17T11:40:51;21.20;;;19.10;;
68866;SDS011;56451;44.804;20.476;2023-08-17T11:43:18;22.65;;;20.25;;
68866;SDS011;56451;44.804;20.476;2023-08-17T11:45:46;24.77;;;21.02;;
68866;SDS011;56451;44.804;20.476;2023-08-17T11:48:12;22.08;;;19.20;;
68866;SDS011;56451;44.804;20.476;2023-08-17T11:50:38;22.60;;;20.20;;
68866;SDS011;56451;44.804;20.476;2023-08-17T11:53:07;21.92;;;19.58;;
68866;SDS011;56451;44.804;20.476;2023-08-17T11:55:34;19.40;;;17.00;;
68866;SDS011;56451;44.804;20.476;2023-08-17T11:58:01;19.60;;;16.83;;
68866;SDS011;56451;44.804;20.476;2023-08-17T12:00:28;21.02;;;17.33;;
68866;SDS011;56451;44.804;20.476;2023-08-17T12:03:00;22.23;;;19.75;;
68866;SDS011;56451;44.804;20.476;2023-08-17T12:05:26;20.58;;;17.38;;
68866;SDS011;56451;44.804;20.476;2023-08-17T12:07:54;20.05;;;17.95;;
68866;SDS011;56451;44.804;20.476;2023-08-17T12:10:20;18.67;;;16.67;;
68866;SDS011;56451;44.804;20.476;2023-08-17T12:12:48;19.25;;;17.27;;
68866;SDS011;56451;44.804;20.476;2023-08-17T12:15:17;18.02;;;16.17;;
68866;SDS011;56451;44.804;20.476;2023-08-17T12:17:44;18.90;;;16.33;;
68866;SDS011;56451;44.804;20.476;2023-08-17T12:20:18;20.67;;;16.20;;
68866;SDS011;56451;44.804;20.476;2023-08-17T12:22:46;20.30;;;16.43;;
68866;SDS011;56451;44.804;20.476;2023-08-17T12:25:12;18.60;;;16.45;;
68866;SDS011;56451;44.804;20.476;2023-08-17T12:27:39;17.40;;;15.50;;
68866;SDS011;56451;44.804;20.476;2023-08-17T12:30:23;20.42;;;15.48;;
68866;SDS011;56451;44.804;20.476;2023-08-17T12:32:58;20.50;;;16.52;;
68866;SDS011;56451;44.804;20.476;2023-08-17T12:35:25;20.73;;;17.83;;
68866;SDS011;56451;44.804;20.476;2023-08-17T12:37:51;30.38;;;18.55;;
68866;SDS011;56451;44.804;20.476;2023-08-17T12:40:18;25.83;;;17.88;;
68866;SDS011;56451;44.804;20.476;2023-08-17T12:42:43;17.83;;;15.77;;
68866;SDS011;56451;44.804;20.476;2023-08-17T12:45:10;18.23;;;15.00;;
68866;SDS011;56451;44.804;20.476;2023-08-17T12:47:36;22.70;;;16.40;;
68866;SDS011;56451;44.804;20.476;2023-08-17T12:50:02;27.02;;;16.95;;
68866;SDS011;56451;44.804;20.476;2023-08-17T12:52:29;24.58;;;15.80;;
68866;SDS011;56451;44.804;20.476;2023-08-17T12:54:55;24.35;;;17.38;;
68866;SDS011;56451;44.804;20.476;2023-08-17T12:57:20;22.73;;;15.27;;
68866;SDS011;56451;44.804;20.476;2023-08-17T12:59:46;22.52;;;16.67;;
68866;SDS011;56451;44.804;20.476;2023-08-17T13:02:12;20.20;;;15.37;;
68866;SDS011;56451;44.804;20.476;2023-08-17T13:04:38;28.00;;;17.65;;
68866;SDS011;56451;44.804;20.476;2023-08-17T13:07:04;19.90;;;15.02;;
68866;SDS011;56451;44.804;20.476;2023-08-17T13:09:30;17.03;;;15.23;;
68866;SDS011;56451;44.804;20.476;2023-08-17T13:11:56;21.48;;;16.00;;
68866;SDS011;56451;44.804;20.476;2023-08-17T13:14:22;19.52;;;16.35;;
68866;SDS011;56451;44.804;20.476;2023-08-17T13:16:51;21.43;;;15.40;;
68866;SDS011;56451;44.804;20.476;2023-08-17T13:19:17;17.75;;;14.40;;
68866;SDS011;56451;44.804;20.476;2023-08-17T13:21:44;18.77;;;14.18;;
68866;SDS011;56451;44.804;20.476;2023-08-17T13:24:10;14.93;;;13.40;;
68866;SDS011;56451;44.804;20.476;2023-08-17T13:26:36;19.05;;;15.23;;
68866;SDS011;56451;44.804;20.476;2023-08-17T13:29:02;19.97;;;15.40;;
68866;SDS011;56451;44.804;20.476;2023-08-17T13:31:28;19.30;;;15.18;;
68866;SDS011;56451;44.804;20.476;2023-08-17T13:33:54;17.17;;;13.50;;
68866;SDS011;56451;44.804;20.476;2023-08-17T13:36:20;17.98;;;13.60;;
68866;SDS011;56451;44.804;20.476;2023-08-17T13:38:47;14.38;;;12.90;;
68866;SDS011;56451;44.804;20.476;2023-08-17T13:41:13;14.43;;;12.63;;
68866;SDS011;56451;44.804;20.476;2023-08-17T13:43:39;15.75;;;12.77;;
68866;SDS011;56451;44.804;20.476;2023-08-17T13:46:05;13.93;;;12.13;;
68866;SDS011;56451;44.804;20.476;2023-08-17T13:48:31;15.30;;;13.43;;
68866;SDS011;56451;44.804;20.476;2023-08-17T13:50:57;15.20;;;12.87;;
68866;SDS011;56451;44.804;20.476;2023-08-17T13:53:23;17.58;;;13.27;;
68866;SDS011;56451;44.804;20.476;2023-08-17T13:55:49;14.37;;;12.97;;
68866;SDS011;56451;44.804;20.476;2023-08-17T13:58:15;16.03;;;12.50;;
68866;SDS011;56451;44.804;20.476;2023-08-17T14:00:41;13.63;;;12.00;;
68866;SDS011;56451;44.804;20.476;2023-08-17T14:03:08;14.02;;;12.43;;
68866;SDS011;56451;44.804;20.476;2023-08-17T14:05:34;15.30;;;12.27;;
68866;SDS011;56451;44.804;20.476;2023-08-17T14:08:00;14.77;;;12.47;;
68866;SDS011;56451;44.804;20.476;2023-08-17T14:10:26;14.40;;;12.38;;
68866;SDS011;56451;44.804;20.476;2023-08-17T14:12:52;14.38;;;11.50;;
68866;SDS011;56451;44.804;20.476;2023-08-17T14:15:18;13.17;;;11.43;;